sensor_id;sensor_type;location;lat;lon;timestamp;temperature;humidity
67131;HTU21D;54051;53.464;49.532;2023-03-21T00:01:21;2.02;89.99
67131;HTU21D;54051;53.464;49.532;2023-03-21T00:03:48;2.01;90.05
67131;HTU21D;54051;53.464;49.532;2023-03-21T00:06:16;2.00;90.02
67131;HTU21D;54051;53.464;49.532;2023-03-21T00:08:42;1.96;90.00
67131;HTU21D;54051;53.464;49.532;2023-03-21T00:11:12;1.97;90.35
67131;HTU21D;54051;53.464;49.532;2023-03-21T00:13:39;1.94;90.34
67131;HTU21D;54051;53.464;49.532;2023-03-21T00:16:14;1.93;90.30
67131;HTU21D;54051;53.464;49.532;2023-03-21T00:18:43;1.93;90.33
67131;HTU21D;54051;53.464;49.532;2023-03-21T00:21:14;1.92;90.37
67131;HTU21D;54051;53.464;49.532;2023-03-21T00:23:41;1.97;90.53
67131;HTU21D;54051;53.464;49.532;2023-03-21T00:26:08;2.03;90.39
67131;HTU21D;54051;53.464;49.532;2023-03-21T00:28:36;2.05;90.15
67131;HTU21D;54051;53.464;49.532;2023-03-21T00:31:03;2.06;90.06
67131;HTU21D;54051;53.464;49.532;2023-03-21T00:33:30;2.03;89.93
67131;HTU21D;54051;53.464;49.532;2023-03-21T00:35:57;1.99;89.77
67131;HTU21D;54051;53.464;49.532;2023-03-21T00:38:23;1.99;89.87
67131;HTU21D;54051;53.464;49.532;2023-03-21T00:40:50;1.98;89.75
67131;HTU21D;54051;53.464;49.532;2023-03-21T00:43:16;1.96;89.70
67131;HTU21D;54051;53.464;49.532;2023-03-21T00:45:45;2.00;89.80
67131;HTU21D;54051;53.464;49.532;2023-03-21T00:48:12;2.06;89.83
67131;HTU21D;54051;53.464;49.532;2023-03-21T00:50:38;2.11;89.54
67131;HTU21D;54051;53.464;49.532;2023-03-21T00:53:05;2.13;89.18
67131;HTU21D;54051;53.464;49.532;2023-03-21T00:55:32;2.16;88.79
67131;HTU21D;54051;53.464;49.532;2023-03-21T00:57:58;2.14;88.73
67131;HTU21D;54051;53.464;49.532;2023-03-21T01:00:26;2.10;88.52
67131;HTU21D;54051;53.464;49.532;2023-03-21T01:02:52;2.15;88.96
67131;HTU21D;54051;53.464;49.532;2023-03-21T01:05:29;2.25;88.67
67131;HTU21D;54051;53.464;49.532;2023-03-21T01:08:16;2.26;88.28
67131;HTU21D;54051;53.464;49.532;2023-03-21T01:10:45;2.29;88.26
67131;HTU21D;54051;53.464;49.532;2023-03-21T01:13:13;2.35;87.76
67131;HTU21D;54051;53.464;49.532;2023-03-21T01:15:54;2.31;87.57
67131;HTU21D;54051;53.464;49.532;2023-03-21T01:18:24;2.29;87.80
67131;HTU21D;54051;53.464;49.532;2023-03-21T01:20:53;2.21;87.49
67131;HTU21D;54051;53.464;49.532;2023-03-21T01:23:20;2.15;87.91
67131;HTU21D;54051;53.464;49.532;2023-03-21T01:25:48;2.16;88.22
67131;HTU21D;54051;53.464;49.532;2023-03-21T01:28:14;2.22;88.05
67131;HTU21D;54051;53.464;49.532;2023-03-21T01:30:45;2.24;87.67
67131;HTU21D;54051;53.464;49.532;2023-03-21T01:33:13;2.22;87.74
67131;HTU21D;54051;53.464;49.532;2023-03-21T01:35:40;2.21;87.70
67131;HTU21D;54051;53.464;49.532;2023-03-21T01:38:06;2.22;87.49
67131;HTU21D;54051;53.464;49.532;2023-03-21T01:40:35;2.12;87.41
67131;HTU21D;54051;53.464;49.532;2023-03-21T01:43:03;2.08;87.89
67131;HTU21D;54051;53.464;49.532;2023-03-21T01:48:38;2.14;87.68
67131;HTU21D;54051;53.464;49.532;2023-03-21T01:51:10;2.15;87.74
67131;HTU21D;54051;53.464;49.532;2023-03-21T01:53:38;2.16;87.54
67131;HTU21D;54051;53.464;49.532;2023-03-21T01:56:11;2.15;87.52
67131;HTU21D;54051;53.464;49.532;2023-03-21T01:58:39;2.16;87.58
67131;HTU21D;54051;53.464;49.532;2023-03-21T02:01:07;2.16;87.53
67131;HTU21D;54051;53.464;49.532;2023-03-21T02:03:34;2.19;87.17
67131;HTU21D;54051;53.464;49.532;2023-03-21T02:06:12;2.09;87.16
67131;HTU21D;54051;53.464;49.532;2023-03-21T02:08:40;2.03;87.59
67131;HTU21D;54051;53.464;49.532;2023-03-21T02:11:07;2.06;87.85
67131;HTU21D;54051;53.464;49.532;2023-03-21T02:13:34;2.08;87.77
67131;HTU21D;54051;53.464;49.532;2023-03-21T02:16:10;2.09;87.64
67131;HTU21D;54051;53.464;49.532;2023-03-21T02:21:32;2.09;87.73
67131;HTU21D;54051;53.464;49.532;2023-03-21T02:26:59;2.15;87.17
67131;HTU21D;54051;53.464;49.532;2023-03-21T02:32:39;2.15;87.00
67131;HTU21D;54051;53.464;49.532;2023-03-21T02:37:44;2.14;86.95
67131;HTU21D;54051;53.464;49.532;2023-03-21T02:45:24;2.13;86.96
67131;HTU21D;54051;53.464;49.532;2023-03-21T02:47:55;2.14;86.82
67131;HTU21D;54051;53.464;49.532;2023-03-21T02:52:51;2.11;86.78
67131;HTU21D;54051;53.464;49.532;2023-03-21T02:55:23;2.10;86.90
67131;HTU21D;54051;53.464;49.532;2023-03-21T02:57:52;2.14;86.92
67131;HTU21D;54051;53.464;49.532;2023-03-21T03:00:25;2.27;86.83
67131;HTU21D;54051;53.464;49.532;2023-03-21T03:02:52;2.38;86.06
67131;HTU21D;54051;53.464;49.532;2023-03-21T03:05:23;2.46;85.55
67131;HTU21D;54051;53.464;49.532;2023-03-21T03:10:45;2.65;84.59
67131;HTU21D;54051;53.464;49.532;2023-03-21T03:13:22;2.71;84.14
67131;HTU21D;54051;53.464;49.532;2023-03-21T03:16:27;2.79;83.82
67131;HTU21D;54051;53.464;49.532;2023-03-21T03:18:59;2.88;83.27
67131;HTU21D;54051;53.464;49.532;2023-03-21T03:23:57;2.87;83.28
67131;HTU21D;54051;53.464;49.532;2023-03-21T03:26:35;2.88;83.15
67131;HTU21D;54051;53.464;49.532;2023-03-21T03:29:07;2.93;83.25
67131;HTU21D;54051;53.464;49.532;2023-03-21T03:31:41;2.96;82.77
67131;HTU21D;54051;53.464;49.532;2023-03-21T03:34:17;3.00;82.23
67131;HTU21D;54051;53.464;49.532;2023-03-21T03:36:48;3.04;82.08
67131;HTU21D;54051;53.464;49.532;2023-03-21T03:39:17;3.11;81.55
67131;HTU21D;54051;53.464;49.532;2023-03-21T03:41:46;3.17;81.36
67131;HTU21D;54051;53.464;49.532;2023-03-21T03:44:13;3.27;81.12
67131;HTU21D;54051;53.464;49.532;2023-03-21T03:46:57;3.38;80.50
67131;HTU21D;54051;53.464;49.532;2023-03-21T03:49:26;3.48;80.17
67131;HTU21D;54051;53.464;49.532;2023-03-21T03:52:05;3.59;80.01
67131;HTU21D;54051;53.464;49.532;2023-03-21T03:54:39;3.67;79.56
67131;HTU21D;54051;53.464;49.532;2023-03-21T03:57:09;3.74;79.08
67131;HTU21D;54051;53.464;49.532;2023-03-21T03:59:39;3.76;78.89
67131;HTU21D;54051;53.464;49.532;2023-03-21T04:02:05;3.75;79.11
67131;HTU21D;54051;53.464;49.532;2023-03-21T04:04:32;3.83;78.63
67131;HTU21D;54051;53.464;49.532;2023-03-21T04:06:58;3.93;78.42
67131;HTU21D;54051;53.464;49.532;2023-03-21T04:09:26;4.05;77.59
67131;HTU21D;54051;53.464;49.532;2023-03-21T04:11:55;4.10;77.21
67131;HTU21D;54051;53.464;49.532;2023-03-21T04:14:23;4.26;77.18
67131;HTU21D;54051;53.464;49.532;2023-03-21T04:16:49;4.47;76.50
67131;HTU21D;54051;53.464;49.532;2023-03-21T04:19:17;4.63;75.99
67131;HTU21D;54051;53.464;49.532;2023-03-21T04:21:44;6.48;72.07
67131;HTU21D;54051;53.464;49.532;2023-03-21T04:24:11;11.02;54.46
67131;HTU21D;54051;53.464;49.532;2023-03-21T04:26:39;14.54;42.82
67131;HTU21D;54051;53.464;49.532;2023-03-21T04:29:06;16.91;37.25
67131;HTU21D;54051;53.464;49.532;2023-03-21T04:31:32;19.58;32.15
67131;HTU21D;54051;53.464;49.532;2023-03-21T04:34:01;21.64;27.62
67131;HTU21D;54051;53.464;49.532;2023-03-21T04:36:28;22.73;24.49
67131;HTU21D;54051;53.464;49.532;2023-03-21T04:39:06;22.99;23.98
67131;HTU21D;54051;53.464;49.532;2023-03-21T04:41:41;23.28;23.22
67131;HTU21D;54051;53.464;49.532;2023-03-21T04:44:09;23.11;24.03
67131;HTU21D;54051;53.464;49.532;2023-03-21T04:46:36;23.90;22.79
67131;HTU21D;54051;53.464;49.532;2023-03-21T04:49:03;24.59;21.40
67131;HTU21D;54051;53.464;49.532;2023-03-21T04:51:29;23.91;22.18
67131;HTU21D;54051;53.464;49.532;2023-03-21T04:53:56;23.80;22.34
67131;HTU21D;54051;53.464;49.532;2023-03-21T04:56:26;23.53;22.32
67131;HTU21D;54051;53.464;49.532;2023-03-21T04:58:58;23.37;22.92
67131;HTU21D;54051;53.464;49.532;2023-03-21T05:01:25;23.64;22.43
67131;HTU21D;54051;53.464;49.532;2023-03-21T05:04:00;23.20;23.26
67131;HTU21D;54051;53.464;49.532;2023-03-21T05:06:27;22.96;23.45
67131;HTU21D;54051;53.464;49.532;2023-03-21T05:08:54;22.25;24.39
67131;HTU21D;54051;53.464;49.532;2023-03-21T05:11:21;21.16;25.90
67131;HTU21D;54051;53.464;49.532;2023-03-21T05:13:48;21.29;26.06
67131;HTU21D;54051;53.464;49.532;2023-03-21T05:16:14;20.80;27.36
67131;HTU21D;54051;53.464;49.532;2023-03-21T05:18:40;20.88;27.16
67131;HTU21D;54051;53.464;49.532;2023-03-21T05:21:07;20.76;27.21
67131;HTU21D;54051;53.464;49.532;2023-03-21T05:23:36;21.53;25.84
67131;HTU21D;54051;53.464;49.532;2023-03-21T05:26:07;21.06;26.34
67131;HTU21D;54051;53.464;49.532;2023-03-21T05:28:33;20.21;27.74
67131;HTU21D;54051;53.464;49.532;2023-03-21T05:31:02;19.07;30.46
67131;HTU21D;54051;53.464;49.532;2023-03-21T05:33:29;19.38;29.77
67131;HTU21D;54051;53.464;49.532;2023-03-21T05:35:55;19.58;29.35
67131;HTU21D;54051;53.464;49.532;2023-03-21T05:38:22;19.02;30.29
67131;HTU21D;54051;53.464;49.532;2023-03-21T05:40:49;19.27;29.96
67131;HTU21D;54051;53.464;49.532;2023-03-21T05:43:15;18.76;30.95
67131;HTU21D;54051;53.464;49.532;2023-03-21T05:45:42;18.72;31.02
67131;HTU21D;54051;53.464;49.532;2023-03-21T05:48:08;19.97;28.95
67131;HTU21D;54051;53.464;49.532;2023-03-21T05:50:34;20.71;27.28
67131;HTU21D;54051;53.464;49.532;2023-03-21T05:53:01;20.59;27.58
67131;HTU21D;54051;53.464;49.532;2023-03-21T05:55:27;21.58;25.88
67131;HTU21D;54051;53.464;49.532;2023-03-21T05:57:53;21.50;25.75
67131;HTU21D;54051;53.464;49.532;2023-03-21T06:00:19;21.44;25.87
67131;HTU21D;54051;53.464;49.532;2023-03-21T06:02:47;22.01;25.28
67131;HTU21D;54051;53.464;49.532;2023-03-21T06:05:13;21.79;25.11
67131;HTU21D;54051;53.464;49.532;2023-03-21T06:07:39;21.47;25.56
67131;HTU21D;54051;53.464;49.532;2023-03-21T06:10:06;20.75;26.92
67131;HTU21D;54051;53.464;49.532;2023-03-21T06:12:32;20.62;27.28
67131;HTU21D;54051;53.464;49.532;2023-03-21T06:14:59;21.01;26.73
67131;HTU21D;54051;53.464;49.532;2023-03-21T06:17:26;21.50;25.43
67131;HTU21D;54051;53.464;49.532;2023-03-21T06:19:52;21.19;26.07
67131;HTU21D;54051;53.464;49.532;2023-03-21T06:22:18;21.10;26.39
67131;HTU21D;54051;53.464;49.532;2023-03-21T06:24:44;20.98;26.61
67131;HTU21D;54051;53.464;49.532;2023-03-21T06:27:10;20.29;27.68
67131;HTU21D;54051;53.464;49.532;2023-03-21T06:29:37;20.16;28.07
67131;HTU21D;54051;53.464;49.532;2023-03-21T06:32:03;20.59;27.66
67131;HTU21D;54051;53.464;49.532;2023-03-21T06:34:30;20.95;26.72
67131;HTU21D;54051;53.464;49.532;2023-03-21T06:36:56;20.90;26.89
67131;HTU21D;54051;53.464;49.532;2023-03-21T06:39:23;20.81;27.04
67131;HTU21D;54051;53.464;49.532;2023-03-21T06:41:50;21.24;26.17
67131;HTU21D;54051;53.464;49.532;2023-03-21T06:44:16;21.04;26.46
67131;HTU21D;54051;53.464;49.532;2023-03-21T06:46:43;21.27;26.11
67131;HTU21D;54051;53.464;49.532;2023-03-21T06:49:09;21.32;25.97
67131;HTU21D;54051;53.464;49.532;2023-03-21T06:51:35;21.55;25.97
67131;HTU21D;54051;53.464;49.532;2023-03-21T06:54:02;21.91;25.17
67131;HTU21D;54051;53.464;49.532;2023-03-21T06:56:28;21.81;25.07
67131;HTU21D;54051;53.464;49.532;2023-03-21T06:58:54;21.02;26.36
67131;HTU21D;54051;53.464;49.532;2023-03-21T07:01:21;20.88;27.05
67131;HTU21D;54051;53.464;49.532;2023-03-21T07:03:47;20.41;27.39
67131;HTU21D;54051;53.464;49.532;2023-03-21T07:06:13;20.32;27.91
67131;HTU21D;54051;53.464;49.532;2023-03-21T07:08:40;20.41;27.56
67131;HTU21D;54051;53.464;49.532;2023-03-21T07:11:07;19.52;28.77
67131;HTU21D;54051;53.464;49.532;2023-03-21T07:13:33;19.40;29.09
67131;HTU21D;54051;53.464;49.532;2023-03-21T07:16:00;19.01;30.20
67131;HTU21D;54051;53.464;49.532;2023-03-21T07:18:26;19.37;29.39
67131;HTU21D;54051;53.464;49.532;2023-03-21T07:20:52;19.07;30.22
67131;HTU21D;54051;53.464;49.532;2023-03-21T07:23:20;19.18;29.89
67131;HTU21D;54051;53.464;49.532;2023-03-21T07:25:48;19.51;29.24
67131;HTU21D;54051;53.464;49.532;2023-03-21T07:28:16;19.22;29.81
67131;HTU21D;54051;53.464;49.532;2023-03-21T07:30:43;19.14;29.96
67131;HTU21D;54051;53.464;49.532;2023-03-21T07:33:10;19.63;29.27
67131;HTU21D;54051;53.464;49.532;2023-03-21T07:35:37;20.41;27.81
67131;HTU21D;54051;53.464;49.532;2023-03-21T07:38:04;20.16;28.40
67131;HTU21D;54051;53.464;49.532;2023-03-21T07:40:31;20.94;26.59
67131;HTU21D;54051;53.464;49.532;2023-03-21T07:42:58;21.52;25.73
67131;HTU21D;54051;53.464;49.532;2023-03-21T07:45:24;21.27;25.72
67131;HTU21D;54051;53.464;49.532;2023-03-21T07:47:52;21.48;25.27
67131;HTU21D;54051;53.464;49.532;2023-03-21T07:50:19;21.40;25.64
67131;HTU21D;54051;53.464;49.532;2023-03-21T07:52:46;20.89;26.31
67131;HTU21D;54051;53.464;49.532;2023-03-21T07:55:12;20.20;27.58
67131;HTU21D;54051;53.464;49.532;2023-03-21T07:57:39;19.91;28.15
67131;HTU21D;54051;53.464;49.532;2023-03-21T08:00:06;19.68;29.29
67131;HTU21D;54051;53.464;49.532;2023-03-21T08:02:33;19.90;28.74
67131;HTU21D;54051;53.464;49.532;2023-03-21T08:04:59;20.13;28.07
67131;HTU21D;54051;53.464;49.532;2023-03-21T08:07:25;19.46;29.22
67131;HTU21D;54051;53.464;49.532;2023-03-21T08:09:52;18.98;30.30
67131;HTU21D;54051;53.464;49.532;2023-03-21T08:12:18;18.82;30.99
67131;HTU21D;54051;53.464;49.532;2023-03-21T08:14:45;19.56;29.92
67131;HTU21D;54051;53.464;49.532;2023-03-21T08:17:11;19.81;29.54
67131;HTU21D;54051;53.464;49.532;2023-03-21T08:19:37;20.21;28.34
67131;HTU21D;54051;53.464;49.532;2023-03-21T08:22:04;20.01;28.47
67131;HTU21D;54051;53.464;49.532;2023-03-21T08:24:31;19.77;28.87
67131;HTU21D;54051;53.464;49.532;2023-03-21T08:27:00;19.10;30.39
67131;HTU21D;54051;53.464;49.532;2023-03-21T08:29:27;18.59;31.03
67131;HTU21D;54051;53.464;49.532;2023-03-21T08:31:53;18.29;32.09
67131;HTU21D;54051;53.464;49.532;2023-03-21T08:34:19;18.02;32.36
67131;HTU21D;54051;53.464;49.532;2023-03-21T08:36:47;17.89;32.94
67131;HTU21D;54051;53.464;49.532;2023-03-21T08:39:14;17.73;33.56
67131;HTU21D;54051;53.464;49.532;2023-03-21T08:41:40;18.11;32.85
67131;HTU21D;54051;53.464;49.532;2023-03-21T08:44:06;18.06;32.41
67131;HTU21D;54051;53.464;49.532;2023-03-21T08:46:32;17.64;34.02
67131;HTU21D;54051;53.464;49.532;2023-03-21T08:48:59;17.85;33.52
67131;HTU21D;54051;53.464;49.532;2023-03-21T08:51:25;18.04;32.89
67131;HTU21D;54051;53.464;49.532;2023-03-21T08:53:51;17.98;33.12
67131;HTU21D;54051;53.464;49.532;2023-03-21T08:56:17;18.08;33.01
67131;HTU21D;54051;53.464;49.532;2023-03-21T08:58:44;18.08;33.14
67131;HTU21D;54051;53.464;49.532;2023-03-21T09:01:10;17.61;33.80
67131;HTU21D;54051;53.464;49.532;2023-03-21T09:03:41;17.66;33.98
67131;HTU21D;54051;53.464;49.532;2023-03-21T09:06:08;17.00;35.57
67131;HTU21D;54051;53.464;49.532;2023-03-21T09:08:37;15.61;38.91
67131;HTU21D;54051;53.464;49.532;2023-03-21T09:11:04;14.68;41.65
67131;HTU21D;54051;53.464;49.532;2023-03-21T09:13:30;14.35;42.52
67131;HTU21D;54051;53.464;49.532;2023-03-21T09:15:56;14.07;43.10
67131;HTU21D;54051;53.464;49.532;2023-03-21T09:18:27;13.49;44.74
67131;HTU21D;54051;53.464;49.532;2023-03-21T09:21:14;13.01;46.26
67131;HTU21D;54051;53.464;49.532;2023-03-21T09:23:40;12.88;47.28
67131;HTU21D;54051;53.464;49.532;2023-03-21T09:26:08;12.70;47.76
67131;HTU21D;54051;53.464;49.532;2023-03-21T09:28:35;12.18;49.63
67131;HTU21D;54051;53.464;49.532;2023-03-21T09:31:04;11.85;50.30
67131;HTU21D;54051;53.464;49.532;2023-03-21T09:33:31;11.88;50.34
67131;HTU21D;54051;53.464;49.532;2023-03-21T09:35:57;11.88;50.20
67131;HTU21D;54051;53.464;49.532;2023-03-21T09:38:26;11.78;50.85
67131;HTU21D;54051;53.464;49.532;2023-03-21T09:43:52;11.88;50.38
67131;HTU21D;54051;53.464;49.532;2023-03-21T09:49:00;11.52;51.62
67131;HTU21D;54051;53.464;49.532;2023-03-21T09:51:36;11.68;51.54
67131;HTU21D;54051;53.464;49.532;2023-03-21T09:54:30;11.86;50.95
67131;HTU21D;54051;53.464;49.532;2023-03-21T09:57:23;11.79;51.63
67131;HTU21D;54051;53.464;49.532;2023-03-21T09:59:53;11.88;50.85
67131;HTU21D;54051;53.464;49.532;2023-03-21T10:05:00;11.92;51.79
67131;HTU21D;54051;53.464;49.532;2023-03-21T10:07:28;11.93;51.31
67131;HTU21D;54051;53.464;49.532;2023-03-21T10:09:58;11.86;51.81
67131;HTU21D;54051;53.464;49.532;2023-03-21T10:12:25;11.98;51.46
67131;HTU21D;54051;53.464;49.532;2023-03-21T10:14:57;12.17;50.72
67131;HTU21D;54051;53.464;49.532;2023-03-21T10:17:42;12.04;51.41
67131;HTU21D;54051;53.464;49.532;2023-03-21T10:20:22;12.00;51.82
67131;HTU21D;54051;53.464;49.532;2023-03-21T10:22:51;12.01;51.62
67131;HTU21D;54051;53.464;49.532;2023-03-21T10:28:15;11.86;51.67
67131;HTU21D;54051;53.464;49.532;2023-03-21T10:30:46;11.88;52.11
67131;HTU21D;54051;53.464;49.532;2023-03-21T10:33:17;11.91;52.21
67131;HTU21D;54051;53.464;49.532;2023-03-21T10:35:49;11.91;52.40
67131;HTU21D;54051;53.464;49.532;2023-03-21T10:38:18;12.00;52.12
67131;HTU21D;54051;53.464;49.532;2023-03-21T10:40:45;12.08;51.65
67131;HTU21D;54051;53.464;49.532;2023-03-21T10:45:52;11.98;52.60
67131;HTU21D;54051;53.464;49.532;2023-03-21T10:48:19;12.00;52.40
67131;HTU21D;54051;53.464;49.532;2023-03-21T10:50:53;12.02;52.27
67131;HTU21D;54051;53.464;49.532;2023-03-21T10:53:44;12.07;52.25
67131;HTU21D;54051;53.464;49.532;2023-03-21T10:56:08;12.07;52.40
67131;HTU21D;54051;53.464;49.532;2023-03-21T10:58:46;12.18;51.79
67131;HTU21D;54051;53.464;49.532;2023-03-21T11:01:24;12.17;52.59
67131;HTU21D;54051;53.464;49.532;2023-03-21T11:04:16;12.21;52.12
67131;HTU21D;54051;53.464;49.532;2023-03-21T11:06:55;12.17;52.28
67131;HTU21D;54051;53.464;49.532;2023-03-21T11:09:24;12.22;52.25
67131;HTU21D;54051;53.464;49.532;2023-03-21T11:12:03;12.30;52.58
67131;HTU21D;54051;53.464;49.532;2023-03-21T11:14:43;12.31;52.27
67131;HTU21D;54051;53.464;49.532;2023-03-21T11:20:00;12.23;52.01
67131;HTU21D;54051;53.464;49.532;2023-03-21T11:22:38;12.31;50.97
67131;HTU21D;54051;53.464;49.532;2023-03-21T11:25:07;12.36;50.19
67131;HTU21D;54051;53.464;49.532;2023-03-21T11:27:47;12.40;50.47
67131;HTU21D;54051;53.464;49.532;2023-03-21T11:30:18;12.37;49.97
67131;HTU21D;54051;53.464;49.532;2023-03-21T11:32:51;12.31;50.13
67131;HTU21D;54051;53.464;49.532;2023-03-21T11:35:21;12.34;49.99
67131;HTU21D;54051;53.464;49.532;2023-03-21T11:37:53;12.49;49.76
67131;HTU21D;54051;53.464;49.532;2023-03-21T11:40:23;12.47;50.08
67131;HTU21D;54051;53.464;49.532;2023-03-21T11:42:52;12.40;49.78
67131;HTU21D;54051;53.464;49.532;2023-03-21T11:45:22;12.30;49.94
67131;HTU21D;54051;53.464;49.532;2023-03-21T11:47:52;12.29;50.42
67131;HTU21D;54051;53.464;49.532;2023-03-21T11:50:26;12.33;50.25
67131;HTU21D;54051;53.464;49.532;2023-03-21T11:59:12;12.49;49.40
67131;HTU21D;54051;53.464;49.532;2023-03-21T12:04:41;12.52;49.56
67131;HTU21D;54051;53.464;49.532;2023-03-21T12:15:30;12.73;47.96
67131;HTU21D;54051;53.464;49.532;2023-03-21T12:18:13;12.66;47.10
67131;HTU21D;54051;53.464;49.532;2023-03-21T12:20:53;12.66;46.60
67131;HTU21D;54051;53.464;49.532;2023-03-21T12:26:17;12.69;46.96
67131;HTU21D;54051;53.464;49.532;2023-03-21T12:31:49;12.71;46.37
67131;HTU21D;54051;53.464;49.532;2023-03-21T12:37:05;12.60;46.76
67131;HTU21D;54051;53.464;49.532;2023-03-21T12:39:35;12.62;47.15
67131;HTU21D;54051;53.464;49.532;2023-03-21T12:45:02;12.59;47.45
67131;HTU21D;54051;53.464;49.532;2023-03-21T12:47:31;12.55;47.41
67131;HTU21D;54051;53.464;49.532;2023-03-21T12:52:41;12.41;48.08
67131;HTU21D;54051;53.464;49.532;2023-03-21T12:57:48;12.42;48.44
67131;HTU21D;54051;53.464;49.532;2023-03-21T13:03:17;12.47;48.56
67131;HTU21D;54051;53.464;49.532;2023-03-21T13:05:52;12.43;48.86
67131;HTU21D;54051;53.464;49.532;2023-03-21T13:08:28;12.31;49.56
67131;HTU21D;54051;53.464;49.532;2023-03-21T13:10:56;12.38;49.59
67131;HTU21D;54051;53.464;49.532;2023-03-21T13:24:25;12.27;50.82
67131;HTU21D;54051;53.464;49.532;2023-03-21T13:27:05;12.33;50.82
67131;HTU21D;54051;53.464;49.532;2023-03-21T13:29:44;12.32;51.01
67131;HTU21D;54051;53.464;49.532;2023-03-21T13:34:58;12.41;50.84
67131;HTU21D;54051;53.464;49.532;2023-03-21T13:37:29;12.31;51.35
67131;HTU21D;54051;53.464;49.532;2023-03-21T13:40:01;12.28;51.22
67131;HTU21D;54051;53.464;49.532;2023-03-21T13:42:34;12.32;51.03
67131;HTU21D;54051;53.464;49.532;2023-03-21T13:45:05;12.28;50.92
67131;HTU21D;54051;53.464;49.532;2023-03-21T13:47:40;12.17;50.93
67131;HTU21D;54051;53.464;49.532;2023-03-21T13:52:39;12.03;50.64
67131;HTU21D;54051;53.464;49.532;2023-03-21T13:55:14;12.16;50.31
67131;HTU21D;54051;53.464;49.532;2023-03-21T13:57:45;12.18;50.00
67131;HTU21D;54051;53.464;49.532;2023-03-21T14:00:28;12.13;49.32
67131;HTU21D;54051;53.464;49.532;2023-03-21T14:05:23;11.93;49.63
67131;HTU21D;54051;53.464;49.532;2023-03-21T14:07:55;11.83;49.74
67131;HTU21D;54051;53.464;49.532;2023-03-21T14:10:37;11.78;49.82
67131;HTU21D;54051;53.464;49.532;2023-03-21T14:13:05;11.66;50.19
67131;HTU21D;54051;53.464;49.532;2023-03-21T14:15:54;11.58;50.29
67131;HTU21D;54051;53.464;49.532;2023-03-21T14:18:27;11.51;50.60
67131;HTU21D;54051;53.464;49.532;2023-03-21T14:20:55;11.56;50.37
67131;HTU21D;54051;53.464;49.532;2023-03-21T14:23:23;11.44;50.85
67131;HTU21D;54051;53.464;49.532;2023-03-21T14:25:50;11.39;50.96
67131;HTU21D;54051;53.464;49.532;2023-03-21T14:28:20;11.39;51.05
67131;HTU21D;54051;53.464;49.532;2023-03-21T14:30:51;11.34;51.22
67131;HTU21D;54051;53.464;49.532;2023-03-21T14:33:32;11.26;51.47
67131;HTU21D;54051;53.464;49.532;2023-03-21T14:36:05;11.22;51.77
67131;HTU21D;54051;53.464;49.532;2023-03-21T14:38:35;11.14;52.15
67131;HTU21D;54051;53.464;49.532;2023-03-21T14:41:03;11.19;52.09
67131;HTU21D;54051;53.464;49.532;2023-03-21T14:43:29;11.07;52.53
67131;HTU21D;54051;53.464;49.532;2023-03-21T14:45:59;11.02;52.83
67131;HTU21D;54051;53.464;49.532;2023-03-21T14:48:33;10.99;52.91
67131;HTU21D;54051;53.464;49.532;2023-03-21T14:51:04;11.03;52.94
67131;HTU21D;54051;53.464;49.532;2023-03-21T14:53:38;10.98;53.11
67131;HTU21D;54051;53.464;49.532;2023-03-21T14:56:09;10.89;53.60
67131;HTU21D;54051;53.464;49.532;2023-03-21T14:58:38;10.85;53.67
67131;HTU21D;54051;53.464;49.532;2023-03-21T15:01:06;10.84;53.81
67131;HTU21D;54051;53.464;49.532;2023-03-21T15:03:39;10.82;53.87
67131;HTU21D;54051;53.464;49.532;2023-03-21T15:06:13;10.84;53.81
67131;HTU21D;54051;53.464;49.532;2023-03-21T15:08:39;10.83;53.90
67131;HTU21D;54051;53.464;49.532;2023-03-21T15:11:18;10.80;54.07
67131;HTU21D;54051;53.464;49.532;2023-03-21T15:13:54;10.80;55.12
67131;HTU21D;54051;53.464;49.532;2023-03-21T15:16:23;10.72;54.83
67131;HTU21D;54051;53.464;49.532;2023-03-21T15:18:50;10.66;54.91
67131;HTU21D;54051;53.464;49.532;2023-03-21T15:21:20;10.67;55.05
67131;HTU21D;54051;53.464;49.532;2023-03-21T15:23:49;10.60;55.31
67131;HTU21D;54051;53.464;49.532;2023-03-21T15:26:20;10.59;55.49
67131;HTU21D;54051;53.464;49.532;2023-03-21T15:28:50;10.50;55.61
67131;HTU21D;54051;53.464;49.532;2023-03-21T15:31:22;10.45;55.74
67131;HTU21D;54051;53.464;49.532;2023-03-21T15:33:51;10.43;55.98
67131;HTU21D;54051;53.464;49.532;2023-03-21T15:36:25;10.34;56.06
67131;HTU21D;54051;53.464;49.532;2023-03-21T15:38:53;10.30;56.32
67131;HTU21D;54051;53.464;49.532;2023-03-21T15:46:48;10.22;56.88
67131;HTU21D;54051;53.464;49.532;2023-03-21T15:51:47;10.16;57.09
67131;HTU21D;54051;53.464;49.532;2023-03-21T15:54:21;10.16;57.26
67131;HTU21D;54051;53.464;49.532;2023-03-21T15:56:57;10.15;57.37
67131;HTU21D;54051;53.464;49.532;2023-03-21T15:59:29;10.15;57.45
67131;HTU21D;54051;53.464;49.532;2023-03-21T16:01:56;10.05;57.90
67131;HTU21D;54051;53.464;49.532;2023-03-21T16:04:23;9.97;58.18
67131;HTU21D;54051;53.464;49.532;2023-03-21T16:09:24;10.04;58.19
67131;HTU21D;54051;53.464;49.532;2023-03-21T16:11:55;10.07;58.22
67131;HTU21D;54051;53.464;49.532;2023-03-21T16:14:23;10.00;58.31
67131;HTU21D;54051;53.464;49.532;2023-03-21T16:16:52;9.96;58.50
67131;HTU21D;54051;53.464;49.532;2023-03-21T16:19:19;9.94;58.59
67131;HTU21D;54051;53.464;49.532;2023-03-21T16:21:45;9.94;58.49
67131;HTU21D;54051;53.464;49.532;2023-03-21T16:24:12;9.93;58.54
67131;HTU21D;54051;53.464;49.532;2023-03-21T16:26:42;9.96;58.50
67131;HTU21D;54051;53.464;49.532;2023-03-21T16:29:14;9.98;58.50
67131;HTU21D;54051;53.464;49.532;2023-03-21T16:31:41;9.95;58.54
67131;HTU21D;54051;53.464;49.532;2023-03-21T16:34:07;9.95;58.54
67131;HTU21D;54051;53.464;49.532;2023-03-21T16:36:39;9.97;58.56
67131;HTU21D;54051;53.464;49.532;2023-03-21T16:39:22;9.91;58.66
67131;HTU21D;54051;53.464;49.532;2023-03-21T16:41:51;9.84;58.89
67131;HTU21D;54051;53.464;49.532;2023-03-21T16:44:18;9.77;59.32
67131;HTU21D;54051;53.464;49.532;2023-03-21T16:46:45;9.82;59.13
67131;HTU21D;54051;53.464;49.532;2023-03-21T16:49:19;9.85;58.92
67131;HTU21D;54051;53.464;49.532;2023-03-21T16:51:45;9.84;59.00
67131;HTU21D;54051;53.464;49.532;2023-03-21T16:54:12;9.83;58.96
67131;HTU21D;54051;53.464;49.532;2023-03-21T16:56:49;9.78;59.13
67131;HTU21D;54051;53.464;49.532;2023-03-21T16:59:16;9.75;59.31
67131;HTU21D;54051;53.464;49.532;2023-03-21T17:01:43;9.71;59.44
67131;HTU21D;54051;53.464;49.532;2023-03-21T17:04:11;9.69;59.60
67131;HTU21D;54051;53.464;49.532;2023-03-21T17:06:43;9.69;59.54
67131;HTU21D;54051;53.464;49.532;2023-03-21T17:09:11;9.66;59.57
67131;HTU21D;54051;53.464;49.532;2023-03-21T17:11:38;9.66;59.65